Time;durP1;ratioP1;P1;durP2;ratioP2;P2;SDS_P1;SDS_P2;PMS_P1;PMS_P2;Temp;Humidity;BMP_temperature;BMP_pressure;BME280_temperature;BME280_humidity;BME280_pressure;Samples;Min_cycle;Max_cycle;Signal;HPM_P1;HPM_P2
2022/12/18 00:01:26;;;;;;;15.83;10.10;;;-3.90;99.90;;;;;;5088296;28;20655;-66
2022/12/18 00:03:54;;;;;;;13.47;9.43;;;-3.90;99.90;;;;;;4733447;28;10000480;-67
2022/12/18 00:06:20;;;;;;;21.13;9.93;;;-3.90;99.90;;;;;;5088569;28;20673;-69
2022/12/18 00:08:46;;;;;;;16.70;11.90;;;-3.90;99.90;;;;;;5090603;28;20185;-69
2022/12/18 00:11:17;;;;;;;11.90;10.73;;;-3.90;99.90;;;;;;5091150;28;20184;-72
2022/12/18 00:13:43;;;;;;;12.40;9.30;;;-3.90;99.90;;;;;;5088341;28;20189;-71
2022/12/18 00:16:12;;;;;;;13.63;12.33;;;-4.00;99.90;;;;;;5090614;28;20241;-70
2022/12/18 00:18:38;;;;;;;11.17;8.53;;;-4.00;99.90;;;;;;5083841;28;20263;-69
2022/12/18 00:21:07;;;;;;;20.80;8.33;;;-4.00;99.90;;;;;;5089947;28;20291;-71
2022/12/18 00:23:34;;;;;;;19.17;13.03;;;-4.00;99.90;;;;;;5101907;28;20643;-71
2022/12/18 00:26:05;;;;;;;12.90;9.07;;;-4.00;99.90;;;;;;5087801;28;20192;-68
2022/12/18 00:28:31;;;;;;;23.90;13.53;;;-4.10;99.90;;;;;;5091272;28;20747;-69
2022/12/18 00:31:18;;;;;;;14.37;11.60;;;-4.10;99.90;;;;;;5089702;28;20262;-69
2022/12/18 00:33:44;;;;;;;18.73;10.63;;;-4.10;99.90;;;;;;5072098;28;20642;-69
2022/12/18 00:36:13;;;;;;;22.93;13.73;;;-4.10;99.90;;;;;;5083200;28;20183;-69
2022/12/18 00:38:39;;;;;;;12.10;10.73;;;-4.10;99.90;;;;;;5087216;28;20175;-68
2022/12/18 00:41:06;;;;;;;18.43;12.83;;;-4.10;99.90;;;;;;5081488;28;20192;-67
2022/12/18 00:43:34;;;;;;;9.93;9.10;;;-4.10;99.90;;;;;;5089776;28;20187;-69
2022/12/18 00:46:00;;;;;;;11.77;9.93;;;-4.10;99.90;;;;;;5080058;28;20238;-68
2022/12/18 00:48:26;;;;;;;12.40;11.20;;;-4.20;99.90;;;;;;5088767;28;20180;-67
2022/12/18 00:50:51;;;;;;;12.13;11.03;;;-4.20;99.90;;;;;;5071825;28;20979;-67
2022/12/18 00:53:18;;;;;;;8.03;7.33;;;-4.20;99.90;;;;;;5089437;28;20227;-68
2022/12/18 00:55:44;;;;;;;11.53;10.33;;;-4.20;99.90;;;;;;5088532;28;20216;-68
2022/12/18 00:58:11;;;;;;;9.10;7.93;;;-4.20;99.90;;;;;;5085668;28;20189;-68
2022/12/18 01:00:37;;;;;;;15.30;9.50;;;-4.20;99.90;;;;;;5087579;28;20295;-67
2022/12/18 01:03:04;;;;;;;15.67;8.00;;;-4.20;99.90;;;;;;5071290;28;20295;-67
2022/12/18 01:05:30;;;;;;;10.20;9.10;;;-4.40;99.90;;;;;;5088196;28;20190;-66
2022/12/18 01:07:56;;;;;;;5.77;5.23;;;-4.50;99.90;;;;;;5084371;28;20195;-68
2022/12/18 01:10:22;;;;;;;13.10;11.83;;;-4.60;99.90;;;;;;5054909;28;20188;-67
2022/12/18 01:12:48;;;;;;;7.83;7.27;;;-4.60;99.90;;;;;;5090364;28;20271;-67
2022/12/18 01:15:15;;;;;;;11.70;10.27;;;-4.50;99.90;;;;;;5082362;28;20723;-66
2022/12/18 01:17:41;;;;;;;12.60;9.27;;;-4.50;99.90;;;;;;5091413;28;20168;-64
2022/12/18 01:20:08;;;;;;;11.30;10.27;;;-4.40;99.90;;;;;;5091146;28;20219;-65
2022/12/18 01:22:34;;;;;;;13.80;8.63;;;-4.40;99.90;;;;;;5071579;28;20197;-65
2022/12/18 01:25:00;;;;;;;16.90;8.10;;;-4.30;99.90;;;;;;5084799;28;20190;-66
2022/12/18 01:27:26;;;;;;;7.70;7.00;;;-4.30;99.90;;;;;;5092144;28;20179;-66
2022/12/18 01:29:51;;;;;;;10.73;8.53;;;-4.40;99.90;;;;;;5090988;28;20189;-65
2022/12/18 01:32:17;;;;;;;10.97;9.83;;;-4.60;99.90;;;;;;5092559;28;20191;-65
2022/12/18 01:34:43;;;;;;;13.03;9.67;;;-4.60;99.90;;;;;;5087500;28;20218;-65
2022/12/18 01:37:09;;;;;;;15.77;9.47;;;-4.60;99.90;;;;;;5088366;28;20219;-65
2022/12/18 01:39:34;;;;;;;10.03;8.17;;;-4.60;99.90;;;;;;5084066;28;20207;-65
2022/12/18 01:42:02;;;;;;;8.30;7.53;;;-4.60;99.90;;;;;;5091418;28;20202;-65
2022/12/18 01:44:55;;;;;;;14.60;10.57;;;-4.70;99.90;;;;;;5093524;28;20191;-65
2022/12/18 01:47:46;;;;;;;10.13;7.63;;;-4.60;99.90;;;;;;5084506;28;20532;-65
2022/12/18 01:50:15;;;;;;;19.47;12.80;;;-4.60;99.90;;;;;;5092352;28;20640;-65
2022/12/18 01:52:48;;;;;;;13.27;7.97;;;-4.60;99.90;;;;;;5092031;28;20234;-65
2022/12/18 01:55:18;;;;;;;10.40;9.57;;;-4.50;99.90;;;;;;5092487;28;20186;-65
2022/12/18 01:57:44;;;;;;;8.87;7.77;;;-4.60;99.90;;;;;;5081000;28;20184;-65
2022/12/18 02:00:17;;;;;;;20.13;11.30;;;-4.70;99.90;;;;;;5071544;28;20211;-65
2022/12/18 02:02:44;;;;;;;10.13;9.53;;;-4.80;99.90;;;;;;5090260;28;20183;-65
2022/12/18 02:05:13;;;;;;;12.90;9.70;;;-4.80;99.90;;;;;;5092248;28;20207;-65
2022/12/18 02:08:04;;;;;;;20.50;11.13;;;-4.80;99.90;;;;;;5100738;28;20178;-68
2022/12/18 02:10:43;;;;;;;11.73;10.67;;;-4.80;99.90;;;;;;5090786;28;20271;-66
2022/12/18 02:13:28;;;;;;;22.63;14.97;;;-4.80;99.90;;;;;;5091306;28;20178;-66
2022/12/18 02:16:12;;;;;;;9.30;8.37;;;-4.80;99.90;;;;;;5089206;28;20175;-66
2022/12/18 02:18:43;;;;;;;15.73;11.30;;;-4.80;99.90;;;;;;5090951;28;20183;-66
2022/12/18 02:21:14;;;;;;;11.30;7.37;;;-4.80;99.90;;;;;;5091197;28;20236;-66
2022/12/18 02:24:11;;;;;;;18.17;8.60;;;-4.90;99.90;;;;;;5091175;28;20199;-66
2022/12/18 02:26:43;;;;;;;8.27;7.70;;;-5.00;99.90;;;;;;5090943;28;20614;-65
2022/12/18 02:29:14;;;;;;;18.43;7.87;;;-4.90;99.90;;;;;;5086595;28;20185;-66
2022/12/18 02:31:48;;;;;;;16.70;10.77;;;-4.90;99.90;;;;;;5091101;28;20217;-66
2022/12/18 02:34:16;;;;;;;22.63;7.93;;;-4.80;99.90;;;;;;5090863;28;20180;-65
2022/12/18 02:36:45;;;;;;;13.63;7.23;;;-4.50;99.90;;;;;;5087620;28;20183;-65
2022/12/18 02:39:13;;;;;;;18.23;11.33;;;-4.50;99.90;;;;;;5088325;28;20206;-65
2022/12/18 02:41:39;;;;;;;13.57;7.33;;;-4.60;99.90;;;;;;5091383;28;20171;-66
2022/12/18 02:44:13;;;;;;;7.43;6.63;;;-4.70;99.90;;;;;;5080763;28;20191;-65
2022/12/18 02:46:43;;;;;;;8.07;7.43;;;-4.60;99.90;;;;;;5075908;28;20173;-65
2022/12/18 02:49:28;;;;;;;10.63;9.77;;;-4.60;99.90;;;;;;5086049;28;20221;-66
2022/12/18 02:52:04;;;;;;;8.90;6.03;;;-4.50;99.90;;;;;;5081521;28;20183;-66
2022/12/18 02:54:43;;;;;;;10.53;6.53;;;-4.60;99.90;;;;;;5077619;28;20186;-66
2022/12/18 02:57:39;;;;;;;6.13;5.63;;;-4.70;99.90;;;;;;5086184;28;20698;-65
2022/12/18 03:00:19;;;;;;;12.33;5.43;;;-4.80;99.90;;;;;;5083326;28;20247;-65
2022/12/18 03:03:04;;;;;;;10.53;7.93;;;-4.90;99.90;;;;;;5091353;28;20191;-65
2022/12/18 03:05:50;;;;;;;14.47;7.73;;;-5.00;99.90;;;;;;5077769;28;20177;-65
2022/12/18 03:08:28;;;;;;;14.40;9.33;;;-5.00;99.90;;;;;;5101620;28;20182;-65
2022/12/18 03:10:57;;;;;;;5.10;4.70;;;-4.90;99.90;;;;;;5088511;28;20175;-65
2022/12/18 03:13:32;;;;;;;12.70;8.43;;;-5.00;99.90;;;;;;5076045;28;20173;-65
2022/12/18 03:16:00;;;;;;;10.20;7.93;;;-4.90;99.90;;;;;;5088361;28;20182;-65
2022/12/18 03:18:37;;;;;;;12.40;9.57;;;-4.90;99.90;;;;;;5072811;28;20190;-65
2022/12/18 03:21:06;;;;;;;7.57;7.00;;;-4.80;99.90;;;;;;5091786;28;20220;-65
2022/12/18 03:23:42;;;;;;;8.50;7.90;;;-4.50;99.90;;;;;;5091638;28;20288;-65
2022/12/18 03:26:13;;;;;;;8.67;7.50;;;-4.50;99.90;;;;;;5090614;28;20270;-66
2022/12/18 03:28:45;;;;;;;10.03;7.50;;;-4.50;99.90;;;;;;5091816;28;20280;-65
2022/12/18 03:31:13;;;;;;;7.90;6.77;;;-4.60;99.90;;;;;;5087455;28;20189;-67
2022/12/18 03:33:47;;;;;;;8.90;8.00;;;-4.70;99.90;;;;;;5099327;28;20186;-65
2022/12/18 03:36:12;;;;;;;17.50;8.27;;;-4.60;99.90;;;;;;5083552;28;20528;-66
2022/12/18 03:38:38;;;;;;;8.20;7.43;;;-4.70;99.90;;;;;;5081291;28;20186;-66
2022/12/18 03:41:24;;;;;;;7.93;7.07;;;-4.70;99.90;;;;;;5090239;28;20215;-67
2022/12/18 03:44:14;;;;;;;9.63;8.37;;;-4.80;99.90;;;;;;5105457;28;20175;-66
2022/12/18 03:46:42;;;;;;;7.33;5.03;;;-5.00;99.90;;;;;;5091973;28;20185;-65
2022/12/18 03:49:13;;;;;;;11.57;6.97;;;-5.00;99.90;;;;;;5091610;28;20240;-66
2022/12/18 03:52:09;;;;;;;13.53;9.97;;;-4.90;99.90;;;;;;5089945;28;20195;-66
2022/12/18 03:54:36;;;;;;;5.57;5.13;;;-4.60;99.90;;;;;;5081311;28;20175;-66
2022/12/18 03:57:14;;;;;;;8.30;5.53;;;-4.70;99.90;;;;;;5079331;28;20208;-65
2022/12/18 03:59:41;;;;;;;6.83;6.17;;;-4.90;99.90;;;;;;5083727;28;20697;-66
2022/12/18 04:02:08;;;;;;;9.33;7.13;;;-5.00;99.90;;;;;;5094170;28;20673;-65
2022/12/18 04:04:35;;;;;;;6.63;6.13;;;-5.00;99.90;;;;;;5094865;28;20207;-65
2022/12/18 04:07:02;;;;;;;8.13;7.50;;;-5.10;99.90;;;;;;5094497;28;20191;-65
2022/12/18 04:09:30;;;;;;;11.93;8.30;;;-5.00;99.90;;;;;;5091880;28;20559;-65
2022/12/18 04:11:55;;;;;;;4.50;4.27;;;-5.10;99.90;;;;;;5093592;28;20281;-65
2022/12/18 04:14:21;;;;;;;8.43;7.47;;;-5.10;99.90;;;;;;5086826;28;20275;-66
2022/12/18 04:16:47;;;;;;;13.37;9.30;;;-5.00;99.90;;;;;;5056685;28;20182;-65
2022/12/18 04:19:12;;;;;;;12.00;9.43;;;-4.90;99.90;;;;;;5076719;28;20214;-65
2022/12/18 04:21:38;;;;;;;8.97;7.43;;;-4.80;99.90;;;;;;5073853;28;20210;-66
2022/12/18 04:24:04;;;;;;;10.73;6.07;;;-4.80;99.90;;;;;;5082620;28;20194;-65
2022/12/18 04:26:30;;;;;;;8.20;6.60;;;-4.90;99.90;;;;;;5095063;28;20262;-65
2022/12/18 04:28:56;;;;;;;6.93;6.27;;;-4.80;99.90;;;;;;5092961;28;20268;-66
2022/12/18 04:31:22;;;;;;;6.33;5.63;;;-4.90;99.90;;;;;;5093641;28;20252;-65
2022/12/18 04:33:47;;;;;;;6.37;5.83;;;-4.90;99.90;;;;;;5074896;28;20198;-66
2022/12/18 04:36:13;;;;;;;8.43;6.77;;;-5.00;99.90;;;;;;5094560;28;20634;-64
2022/12/18 04:38:39;;;;;;;6.70;6.27;;;-5.00;99.90;;;;;;5062773;28;20188;-64
2022/12/18 04:41:04;;;;;;;18.93;7.20;;;-5.10;99.90;;;;;;5072952;28;20596;-63
2022/12/18 04:43:32;;;;;;;8.40;6.27;;;-5.00;99.90;;;;;;5088771;28;20194;-64
2022/12/18 04:46:06;;;;;;;14.53;9.17;;;-5.00;99.90;;;;;;5074279;28;20546;-64
2022/12/18 04:48:31;;;;;;;9.20;8.27;;;-5.00;99.90;;;;;;5085162;28;20244;-64
2022/12/18 04:50:57;;;;;;;8.93;6.63;;;-5.00;99.90;;;;;;5093402;28;20634;-64
2022/12/18 04:53:22;;;;;;;10.83;6.40;;;-5.10;99.90;;;;;;5091232;28;20188;-65
2022/12/18 04:55:48;;;;;;;11.07;7.27;;;-5.10;99.90;;;;;;5091303;28;20208;-65
2022/12/18 04:58:14;;;;;;;10.83;9.97;;;-5.10;99.90;;;;;;5092632;28;20208;-65
2022/12/18 05:00:39;;;;;;;9.63;8.67;;;-5.10;99.90;;;;;;5075855;28;20218;-65
2022/12/18 05:03:05;;;;;;;11.13;7.53;;;-5.20;99.90;;;;;;5093825;28;20184;-64
2022/12/18 05:05:31;;;;;;;8.23;7.53;;;-5.10;99.90;;;;;;5089334;28;20183;-65
2022/12/18 05:07:56;;;;;;;5.57;5.27;;;-5.20;99.90;;;;;;5072347;28;20769;-64
2022/12/18 05:10:22;;;;;;;8.20;7.50;;;-5.20;99.90;;;;;;5093042;28;20193;-64
2022/12/18 05:13:00;;;;;;;6.67;6.07;;;-5.20;99.90;;;;;;5071673;28;20190;-64
2022/12/18 05:15:32;;;;;;;14.93;5.73;;;-5.20;99.90;;;;;;5077601;28;20249;-65
2022/12/18 05:17:59;;;;;;;8.97;8.13;;;-5.20;99.90;;;;;;5084077;28;20232;-66
2022/12/18 05:20:26;;;;;;;9.33;8.47;;;-5.20;99.90;;;;;;5085913;28;20320;-65
2022/12/18 05:22:52;;;;;;;9.00;7.83;;;-5.30;99.90;;;;;;5084034;28;20242;-65
2022/12/18 05:25:19;;;;;;;5.67;5.17;;;-5.30;99.90;;;;;;5090981;28;20173;-65
2022/12/18 05:27:45;;;;;;;9.20;8.37;;;-5.40;99.90;;;;;;5072830;28;20270;-64
2022/12/18 05:30:13;;;;;;;12.80;8.13;;;-5.30;99.90;;;;;;5075955;28;20217;-65
2022/12/18 05:32:39;;;;;;;18.87;10.00;;;-5.30;99.90;;;;;;5083324;28;20268;-66
2022/12/18 05:35:07;;;;;;;8.07;7.40;;;-5.40;99.90;;;;;;5092396;28;20289;-65
2022/12/18 05:37:33;;;;;;;7.60;6.97;;;-5.20;99.90;;;;;;5091914;28;20249;-65
2022/12/18 05:39:59;;;;;;;8.63;7.73;;;-5.10;99.90;;;;;;5092838;28;20338;-65
2022/12/18 05:42:24;;;;;;;7.07;6.37;;;-5.10;99.90;;;;;;5092046;28;20273;-65
2022/12/18 05:44:50;;;;;;;10.33;9.23;;;-5.10;99.90;;;;;;5084254;28;20186;-65
2022/12/18 05:47:16;;;;;;;8.17;7.33;;;-4.90;99.90;;;;;;5086960;28;20193;-66
2022/12/18 05:49:41;;;;;;;10.37;5.93;;;-4.90;99.90;;;;;;5071285;28;20193;-65
2022/12/18 05:52:07;;;;;;;7.80;6.70;;;-4.90;99.90;;;;;;5086421;28;20192;-65
2022/12/18 05:54:33;;;;;;;9.43;6.90;;;-5.10;99.90;;;;;;5078814;28;20208;-67
2022/12/18 05:56:59;;;;;;;9.37;8.40;;;-5.40;99.90;;;;;;5095139;28;20596;-64
2022/12/18 05:59:24;;;;;;;7.10;5.50;;;-5.50;99.90;;;;;;5104090;28;20290;-65
2022/12/18 06:01:50;;;;;;;12.63;8.23;;;-5.50;99.90;;;;;;5093460;28;20190;-64
2022/12/18 06:04:16;;;;;;;8.37;6.70;;;-5.50;99.90;;;;;;5092840;28;20189;-66
2022/12/18 06:06:41;;;;;;;16.40;7.53;;;-5.50;99.90;;;;;;5074856;28;20273;-65
2022/12/18 06:09:09;;;;;;;6.93;6.27;;;-5.30;99.90;;;;;;5065483;28;20206;-65
2022/12/18 06:11:36;;;;;;;5.97;5.67;;;-5.30;99.90;;;;;;5106770;28;20209;-64
2022/12/18 06:14:03;;;;;;;8.30;6.93;;;-5.30;99.90;;;;;;5087839;28;20182;-64
2022/12/18 06:16:29;;;;;;;8.47;6.83;;;-5.30;99.90;;;;;;5073182;28;20214;-65
2022/12/18 06:18:59;;;;;;;12.87;5.90;;;-5.40;99.90;;;;;;5092739;28;20211;-64
2022/12/18 06:21:25;;;;;;;9.63;8.17;;;-5.40;99.90;;;;;;5091829;28;20212;-64
2022/12/18 06:23:51;;;;;;;6.90;5.73;;;-5.40;99.90;;;;;;5083212;28;20201;-63
2022/12/18 06:26:16;;;;;;;13.37;8.13;;;-5.40;99.90;;;;;;5089453;28;20660;-66
2022/12/18 06:28:42;;;;;;;6.47;6.07;;;-5.50;99.90;;;;;;5089044;28;20188;-64
2022/12/18 06:31:08;;;;;;;11.33;9.87;;;-5.50;99.90;;;;;;5091256;28;20188;-64
2022/12/18 06:33:35;;;;;;;12.10;7.80;;;-5.40;99.90;;;;;;5091484;28;20182;-65
2022/12/18 06:36:10;;;;;;;13.60;8.07;;;-5.40;99.90;;;;;;5058140;28;20217;-64
2022/12/18 06:38:37;;;;;;;9.23;7.67;;;-5.40;99.90;;;;;;5085433;28;20208;-66
2022/12/18 06:41:09;;;;;;;8.50;7.27;;;-5.40;99.90;;;;;;5082782;28;20214;-64
2022/12/18 06:43:36;;;;;;;7.77;7.17;;;-5.40;99.90;;;;;;5086546;28;20305;-64
2022/12/18 06:46:02;;;;;;;8.23;7.17;;;-5.40;99.90;;;;;;5073774;28;20182;-64
2022/12/18 06:48:28;;;;;;;8.67;6.33;;;-5.40;99.90;;;;;;5091510;28;20211;-64
2022/12/18 06:50:54;;;;;;;6.50;4.10;;;-5.50;99.90;;;;;;5090205;28;20238;-63
2022/12/18 06:53:20;;;;;;;14.53;8.10;;;-5.50;99.90;;;;;;5077904;28;20183;-64
2022/12/18 06:55:45;;;;;;;7.73;7.27;;;-5.40;99.90;;;;;;5053645;28;20197;-63
2022/12/18 06:58:11;;;;;;;5.23;4.80;;;-5.50;99.90;;;;;;5086844;28;20189;-64
2022/12/18 07:00:37;;;;;;;5.20;5.00;;;-5.50;99.90;;;;;;5070573;28;20588;-65
2022/12/18 07:03:02;;;;;;;6.50;6.03;;;-5.60;99.90;;;;;;5087252;28;20178;-65
2022/12/18 07:05:28;;;;;;;7.03;6.33;;;-5.50;99.90;;;;;;5070270;28;20193;-66
2022/12/18 07:07:54;;;;;;;5.77;5.40;;;-5.30;99.90;;;;;;5084668;28;20270;-65
2022/12/18 07:10:19;;;;;;;8.73;7.97;;;-5.10;99.90;;;;;;5054892;28;20217;-66
2022/12/18 07:12:45;;;;;;;4.53;4.13;;;-5.10;99.90;;;;;;5082073;28;20255;-64
2022/12/18 07:15:11;;;;;;;10.43;6.13;;;-5.00;99.90;;;;;;5092556;28;20196;-65
2022/12/18 07:17:37;;;;;;;8.13;7.33;;;-5.10;99.90;;;;;;5090224;28;20254;-65
2022/12/18 07:20:03;;;;;;;7.60;4.97;;;-4.90;99.90;;;;;;5074159;28;20223;-66
2022/12/18 07:22:28;;;;;;;7.00;6.57;;;-4.90;99.90;;;;;;5084200;28;20256;-65
2022/12/18 07:24:55;;;;;;;4.80;4.60;;;-4.90;99.90;;;;;;5073894;28;20193;-64
2022/12/18 07:27:21;;;;;;;7.13;6.43;;;-4.90;99.90;;;;;;5083443;28;20179;-65
2022/12/18 07:29:46;;;;;;;7.27;6.57;;;-5.00;99.90;;;;;;5094625;28;20187;-64
2022/12/18 07:32:12;;;;;;;3.97;3.87;;;-5.00;99.90;;;;;;5057755;28;20595;-65
2022/12/18 07:34:38;;;;;;;6.87;6.37;;;-5.00;99.90;;;;;;5081306;28;20200;-64
2022/12/18 07:37:04;;;;;;;5.17;4.97;;;-4.90;99.90;;;;;;5091833;28;20191;-65
2022/12/18 07:39:30;;;;;;;8.97;6.03;;;-4.80;99.90;;;;;;5095783;28;20210;-64
2022/12/18 07:44:40;;;;;;;6.83;6.23;;;-4.70;99.90;;;;;;5084652;28;20235;-64
2022/12/18 07:47:06;;;;;;;6.40;6.00;;;-4.80;99.90;;;;;;5093988;28;20279;-65
2022/12/18 07:49:31;;;;;;;7.90;7.20;;;-4.80;99.90;;;;;;5083561;28;20189;-65
2022/12/18 07:51:57;;;;;;;8.60;6.73;;;-4.90;99.90;;;;;;5090334;28;20196;-65
2022/12/18 07:54:24;;;;;;;6.67;6.20;;;-4.80;99.90;;;;;;5092018;28;20169;-65
2022/12/18 07:56:50;;;;;;;6.20;5.90;;;-4.60;99.90;;;;;;5094193;28;20512;-65
2022/12/18 07:59:16;;;;;;;13.23;5.80;;;-4.70;99.90;;;;;;5093195;28;20190;-65
2022/12/18 08:01:42;;;;;;;4.73;4.30;;;-4.60;99.90;;;;;;5073728;28;20188;-65
2022/12/18 08:04:08;;;;;;;7.67;6.93;;;-4.60;99.90;;;;;;5075141;28;20196;-64
2022/12/18 08:06:33;;;;;;;8.63;7.90;;;-4.60;99.90;;;;;;5045408;28;20181;-65
2022/12/18 08:08:59;;;;;;;9.90;9.13;;;-4.80;99.90;;;;;;5089861;28;20185;-65
2022/12/18 08:11:26;;;;;;;9.73;7.40;;;-4.80;99.90;;;;;;5094474;28;20233;-64
2022/12/18 08:13:52;;;;;;;9.50;8.57;;;-4.80;99.90;;;;;;5094224;28;20285;-64
2022/12/18 08:16:19;;;;;;;18.70;8.40;;;-4.70;99.90;;;;;;5090888;28;20210;-64
2022/12/18 08:18:45;;;;;;;7.37;6.80;;;-4.70;99.90;;;;;;5080146;28;20241;-65
2022/12/18 08:21:13;;;;;;;8.60;6.47;;;-4.70;99.90;;;;;;5084793;28;20227;-65
2022/12/18 08:23:39;;;;;;;6.93;6.40;;;-4.70;99.90;;;;;;5092417;28;20252;-66
2022/12/18 08:26:05;;;;;;;14.27;6.43;;;-4.60;99.90;;;;;;5094166;28;20236;-64
2022/12/18 08:28:31;;;;;;;12.43;9.37;;;-4.50;99.90;;;;;;5081089;28;20189;-65
2022/12/18 08:30:57;;;;;;;7.70;7.10;;;-4.30;99.90;;;;;;5086521;28;20197;-64
2022/12/18 08:33:23;;;;;;;5.00;4.57;;;-4.10;99.90;;;;;;5076905;28;20228;-65
2022/12/18 08:35:49;;;;;;;5.17;4.97;;;-4.10;99.90;;;;;;5093126;28;20234;-66
2022/12/18 08:38:14;;;;;;;5.57;5.27;;;-3.90;99.90;;;;;;5059891;28;20190;-64
2022/12/18 08:40:40;;;;;;;4.57;4.37;;;-4.00;99.90;;;;;;5090287;28;20240;-64
2022/12/18 08:45:51;;;;;;;6.27;5.10;;;-4.00;99.90;;;;;;5090205;28;20208;-65
2022/12/18 08:48:17;;;;;;;13.77;6.70;;;-3.80;99.90;;;;;;5074547;28;20192;-64
2022/12/18 08:50:43;;;;;;;7.10;6.47;;;-3.70;99.90;;;;;;5076791;28;20185;-64
2022/12/18 08:53:09;;;;;;;8.77;5.17;;;-3.70;99.90;;;;;;5090253;28;20189;-65
2022/12/18 08:55:34;;;;;;;7.87;7.13;;;-3.70;99.90;;;;;;5076708;28;20182;-67
2022/12/18 08:58:00;;;;;;;5.57;5.13;;;-3.50;99.90;;;;;;5089054;28;20196;-66
2022/12/18 09:00:26;;;;;;;19.47;7.03;;;-3.50;99.90;;;;;;5095950;28;20233;-66
2022/12/18 09:02:51;;;;;;;10.23;5.47;;;-3.50;99.90;;;;;;5083259;28;20187;-64
2022/12/18 09:05:17;;;;;;;9.07;5.93;;;-3.40;99.90;;;;;;5083465;28;20181;-66
2022/12/18 09:07:42;;;;;;;5.47;5.17;;;-3.30;99.90;;;;;;5086975;28;20188;-66
2022/12/18 09:10:08;;;;;;;8.90;6.43;;;-2.90;99.90;;;;;;5088691;28;20208;-66
2022/12/18 09:12:34;;;;;;;9.93;6.90;;;-2.80;99.90;;;;;;5087582;28;20185;-65
2022/12/18 09:14:59;;;;;;;16.63;10.27;;;-2.80;99.90;;;;;;5087468;28;20323;-66
2022/12/18 09:17:26;;;;;;;6.83;5.83;;;-2.90;99.90;;;;;;5087421;28;20209;-65
2022/12/18 09:19:51;;;;;;;12.50;8.17;;;-2.80;99.90;;;;;;5087582;28;20213;-64
2022/12/18 09:22:17;;;;;;;15.87;8.87;;;-2.60;99.90;;;;;;5088135;28;20651;-66
2022/12/18 09:24:43;;;;;;;9.43;8.30;;;-2.60;99.90;;;;;;5076944;28;20819;-66
2022/12/18 09:27:08;;;;;;;27.73;14.07;;;-2.40;99.90;;;;;;5080397;28;20190;-65
2022/12/18 09:29:34;;;;;;;18.00;13.93;;;-2.30;99.90;;;;;;5087780;28;20189;-67
2022/12/18 09:31:59;;;;;;;10.60;8.13;;;-2.00;99.90;;;;;;5088309;28;20191;-67
2022/12/18 09:34:25;;;;;;;9.90;6.80;;;-1.90;99.90;;;;;;5080764;28;20184;-67
2022/12/18 09:36:51;;;;;;;16.73;6.87;;;-1.80;99.90;;;;;;5087080;28;20314;-68
2022/12/18 09:39:16;;;;;;;11.50;8.60;;;-1.80;99.90;;;;;;5086443;28;20802;-67
2022/12/18 09:41:53;;;;;;;17.77;9.27;;;-1.80;99.90;;;;;;5085948;28;20532;-65
2022/12/18 09:44:31;;;;;;;12.90;7.40;;;-1.80;99.90;;;;;;5093674;28;20634;-65
2022/12/18 09:47:38;;;;;;;9.03;8.10;;;-1.80;99.90;;;;;;5088542;28;20179;-65
2022/12/18 09:50:28;;;;;;;13.53;9.00;;;-2.10;99.90;;;;;;5045585;28;20190;-66
2022/12/18 09:52:57;;;;;;;9.60;8.73;;;-2.30;99.90;;;;;;5081888;28;20203;-67
2022/12/18 09:55:34;;;;;;;7.40;6.70;;;-2.40;99.90;;;;;;5099569;28;20181;-67
2022/12/18 09:58:26;;;;;;;12.27;8.43;;;-2.50;99.90;;;;;;5088708;28;20187;-64
2022/12/18 10:00:53;;;;;;;9.40;6.90;;;-2.40;99.90;;;;;;5087082;28;20218;-66
2022/12/18 10:03:19;;;;;;;10.50;9.10;;;-2.20;99.90;;;;;;5093181;28;20536;-64
2022/12/18 10:06:00;;;;;;;8.37;7.50;;;-1.90;99.90;;;;;;5074062;28;20616;-65
2022/12/18 10:08:53;;;;;;;13.70;7.90;;;-1.70;99.90;;;;;;5089788;28;20175;-64
2022/12/18 10:11:25;;;;;;;9.83;6.63;;;-1.80;99.90;;;;;;5089917;28;20227;-65
2022/12/18 10:14:08;;;;;;;19.27;10.63;;;-1.80;99.90;;;;;;5092219;28;20230;-64
2022/12/18 10:16:49;;;;;;;8.63;7.50;;;-1.70;99.90;;;;;;5091320;28;20191;-65
2022/12/18 10:19:35;;;;;;;18.00;9.80;;;-1.50;99.90;;;;;;5086077;28;20188;-65
2022/12/18 10:22:22;;;;;;;7.37;6.67;;;-1.40;99.90;;;;;;5084342;28;20613;-67
2022/12/18 10:24:55;;;;;;;9.40;7.30;;;-1.30;99.90;;;;;;5086036;28;20182;-66
2022/12/18 10:27:26;;;;;;;8.87;6.73;;;-1.20;99.90;;;;;;5091965;28;20183;-66
2022/12/18 10:29:53;;;;;;;14.50;8.70;;;-1.20;99.90;;;;;;5085544;28;20187;-65
2022/12/18 10:32:25;;;;;;;9.70;6.77;;;-1.20;99.90;;;;;;5077872;28;20180;-64
2022/12/18 10:34:53;;;;;;;8.03;6.07;;;-1.10;99.90;;;;;;5092407;28;20211;-65
2022/12/18 10:37:22;;;;;;;6.03;5.43;;;-0.90;99.90;;;;;;5090886;28;20630;-63
2022/12/18 10:40:09;;;;;;;13.10;8.57;;;-0.70;99.90;;;;;;5085162;28;20262;-65
2022/12/18 10:42:34;;;;;;;13.63;7.30;;;-0.80;99.90;;;;;;5090951;28;20172;-63
2022/12/18 10:45:18;;;;;;;12.97;8.60;;;-0.70;99.90;;;;;;5088179;28;20245;-64
2022/12/18 10:47:48;;;;;;;8.27;7.30;;;-0.60;99.90;;;;;;5083517;28;20173;-65
2022/12/18 10:50:25;;;;;;;18.77;13.57;;;-0.60;99.90;;;;;;5086757;28;20176;-67
2022/12/18 10:52:59;;;;;;;15.77;8.80;;;-0.60;99.90;;;;;;5088460;28;20229;-65
2022/12/18 10:55:32;;;;;;;16.00;7.77;;;-0.40;99.90;;;;;;5086904;28;20172;-66
2022/12/18 10:58:24;;;;;;;15.83;9.43;;;-0.30;99.90;;;;;;5087934;28;20189;-64
2022/12/18 11:01:03;;;;;;;9.43;7.67;;;-0.20;99.90;;;;;;5085122;28;20201;-65
2022/12/18 11:03:32;;;;;;;15.63;8.83;;;-0.10;99.90;;;;;;5086254;28;20180;-65
2022/12/18 11:06:10;;;;;;;13.27;9.37;;;0.10;99.90;;;;;;5086533;28;20706;-65
2022/12/18 11:08:36;;;;;;;10.73;8.30;;;0.00;99.90;;;;;;5104429;28;20183;-64
2022/12/18 11:11:04;;;;;;;12.90;6.77;;;-0.10;99.90;;;;;;5089845;28;20196;-62
2022/12/18 11:13:31;;;;;;;11.17;7.60;;;0.10;99.90;;;;;;5090441;28;20193;-65
2022/12/18 11:15:58;;;;;;;10.17;8.73;;;0.10;99.90;;;;;;5093804;28;20655;-68
2022/12/18 11:18:34;;;;;;;21.52;12.52;;;0.10;99.90;;;;;;5094722;28;20786;-64
2022/12/18 11:21:07;;;;;;;15.20;9.07;;;0.20;99.90;;;;;;5092318;28;20232;-65
2022/12/18 11:23:34;;;;;;;12.67;8.73;;;0.20;99.90;;;;;;5087373;28;20250;-64
2022/12/18 11:26:02;;;;;;;10.83;7.67;;;0.20;99.90;;;;;;5090994;28;20188;-67
2022/12/18 11:28:44;;;;;;;13.43;9.13;;;0.10;99.90;;;;;;5091757;28;20206;-64
2022/12/18 11:31:09;;;;;;;10.40;8.57;;;0.10;99.90;;;;;;5087906;28;20578;-69
2022/12/18 11:33:37;;;;;;;14.03;9.90;;;0.00;99.90;;;;;;5087268;28;20173;-68
2022/12/18 11:36:07;;;;;;;10.37;7.33;;;0.10;99.90;;;;;;5095281;28;20182;-67
2022/12/18 11:38:37;;;;;;;14.80;10.40;;;0.00;99.90;;;;;;5090383;28;20262;-66
2022/12/18 11:41:22;;;;;;;10.37;9.13;;;0.20;99.90;;;;;;5089086;28;20226;-67
2022/12/18 11:43:53;;;;;;;16.80;10.27;;;0.20;99.90;;;;;;5093496;28;20302;-65
2022/12/18 11:46:54;;;;;;;12.80;9.67;;;0.10;99.90;;;;;;5091630;28;20211;-66
2022/12/18 11:49:34;;;;;;;12.30;9.10;;;0.00;99.90;;;;;;5083675;28;20497;-71
2022/12/18 11:52:22;;;;;;;12.33;8.10;;;0.20;99.90;;;;;;5076729;28;20194;-67
2022/12/18 11:54:58;;;;;;;14.50;8.70;;;0.30;99.90;;;;;;5083225;28;20643;-66
2022/12/18 11:57:41;;;;;;;15.37;8.97;;;0.50;99.90;;;;;;5079138;28;20653;-66
2022/12/18 12:00:21;;;;;;;12.90;8.90;;;0.60;99.90;;;;;;5083636;28;20207;-67
2022/12/18 12:03:13;;;;;;;12.17;9.87;;;0.30;99.90;;;;;;5087919;28;20173;-67
2022/12/18 12:06:03;;;;;;;19.93;11.57;;;0.30;99.90;;;;;;5083813;28;20567;-66
2022/12/18 12:08:49;;;;;;;14.30;8.60;;;0.50;99.90;;;;;;5078400;28;20274;-66
2022/12/18 12:11:49;;;;;;;15.97;10.10;;;0.70;99.90;;;;;;5086627;28;20180;-67
2022/12/18 12:14:41;;;;;;;13.87;8.50;;;0.80;99.90;;;;;;5080792;28;20705;-67
2022/12/18 12:17:34;;;;;;;11.77;8.97;;;0.70;99.90;;;;;;5090025;28;20199;-67
2022/12/18 12:20:30;;;;;;;17.80;9.60;;;0.70;99.90;;;;;;5084002;28;20223;-66
2022/12/18 12:23:03;;;;;;;12.40;9.57;;;0.70;99.90;;;;;;5050357;28;20651;-69
2022/12/18 12:25:33;;;;;;;20.00;10.73;;;0.80;99.90;;;;;;5082600;28;20259;-66
2022/12/18 12:28:13;;;;;;;17.83;9.60;;;0.80;99.90;;;;;;5088312;28;20176;-66
2022/12/18 12:31:00;;;;;;;15.63;10.47;;;1.10;99.90;;;;;;5080526;28;20764;-66
2022/12/18 12:33:38;;;;;;;16.43;10.33;;;1.20;99.90;;;;;;5089978;28;20255;-67
2022/12/18 12:36:28;;;;;;;13.90;10.77;;;1.20;99.90;;;;;;5078402;28;20172;-65
2022/12/18 12:39:00;;;;;;;16.80;11.83;;;1.40;99.90;;;;;;5077202;28;20185;-65
2022/12/18 12:44:23;;;;;;;19.87;10.53;;;1.60;99.90;;;;;;5085243;28;20243;-66
2022/12/18 12:46:52;;;;;;;19.83;10.80;;;1.30;99.90;;;;;;5081807;28;20743;-67
2022/12/18 12:49:22;;;;;;;16.83;11.03;;;1.40;99.90;;;;;;5086332;28;20652;-68
2022/12/18 12:51:57;;;;;;;23.47;12.53;;;1.50;99.90;;;;;;5085242;28;20185;-67
2022/12/18 12:54:25;;;;;;;16.73;11.93;;;1.80;99.90;;;;;;5087749;28;20177;-68
2022/12/18 12:57:08;;;;;;;21.23;14.27;;;2.00;99.90;;;;;;5087784;28;20191;-67
2022/12/18 12:59:45;;;;;;;16.30;11.07;;;1.80;99.90;;;;;;5080600;28;20283;-66
2022/12/18 13:02:37;;;;;;;18.50;10.33;;;1.90;99.90;;;;;;5084009;28;20184;-68
2022/12/18 13:05:30;;;;;;;23.37;12.13;;;2.00;99.90;;;;;;5077256;28;20184;-66
2022/12/18 13:08:04;;;;;;;20.50;10.47;;;2.10;99.90;;;;;;5080226;28;20173;-67